sensor_id;sensor_type;location;lat;lon;timestamp;pressure;altitude;pressure_sealevel;temperature;humidity
44765;BME280;30484;52.382;5.260;2023-10-19T00:00:33;99380.34;;;15.93;100.00
44765;BME280;30484;52.382;5.260;2023-10-19T00:03:03;99374.22;;;16.56;100.00
44765;BME280;30484;52.382;5.260;2023-10-19T00:05:30;99382.34;;;15.33;100.00
44765;BME280;30484;52.382;5.260;2023-10-19T00:08:02;99387.28;;;15.95;100.00
44765;BME280;30484;52.382;5.260;2023-10-19T00:10:32;99385.53;;;16.14;100.00
44765;BME280;30484;52.382;5.260;2023-10-19T00:13:02;99377.44;;;16.14;100.00
44765;BME280;30484;52.382;5.260;2023-10-19T00:15:31;99369.47;;;16.40;100.00
44765;BME280;30484;52.382;5.260;2023-10-19T00:18:01;99370.78;;;15.70;100.00
44765;BME280;30484;52.382;5.260;2023-10-19T00:20:34;99366.75;;;16.68;100.00
44765;BME280;30484;52.382;5.260;2023-10-19T00:23:18;99367.34;;;16.16;100.00
44765;BME280;30484;52.382;5.260;2023-10-19T00:25:45;99362.88;;;16.52;100.00
44765;BME280;30484;52.382;5.260;2023-10-19T00:28:18;99361.44;;;16.30;100.00
44765;BME280;30484;52.382;5.260;2023-10-19T00:30:46;99367.53;;;16.78;100.00
44765;BME280;30484;52.382;5.260;2023-10-19T00:33:15;99350.91;;;16.19;100.00
44765;BME280;30484;52.382;5.260;2023-10-19T00:35:45;99347.72;;;15.96;100.00
44765;BME280;30484;52.382;5.260;2023-10-19T00:38:31;99350.66;;;17.30;100.00
44765;BME280;30484;52.382;5.260;2023-10-19T00:41:09;99357.28;;;16.82;100.00
44765;BME280;30484;52.382;5.260;2023-10-19T00:43:47;99344.69;;;17.00;100.00
44765;BME280;30484;52.382;5.260;2023-10-19T00:46:18;99362.19;;;16.50;100.00
44765;BME280;30484;52.382;5.260;2023-10-19T00:48:55;99343.72;;;17.10;100.00
44765;BME280;30484;52.382;5.260;2023-10-19T00:51:29;99341.59;;;16.95;100.00
44765;BME280;30484;52.382;5.260;2023-10-19T00:54:18;99344.38;;;16.12;100.00
44765;BME280;30484;52.382;5.260;2023-10-19T00:56:53;99344.81;;;15.89;100.00
44765;BME280;30484;52.382;5.260;2023-10-19T00:59:23;99344.84;;;16.53;100.00
44765;BME280;30484;52.382;5.260;2023-10-19T01:01:53;99328.09;;;17.92;100.00
44765;BME280;30484;52.382;5.260;2023-10-19T01:04:25;99332.41;;;17.06;100.00
44765;BME280;30484;52.382;5.260;2023-10-19T01:06:59;99337.72;;;16.80;100.00
44765;BME280;30484;52.382;5.260;2023-10-19T01:09:40;99330.38;;;17.79;100.00
44765;BME280;30484;52.382;5.260;2023-10-19T01:12:11;99332.53;;;17.04;100.00
44765;BME280;30484;52.382;5.260;2023-10-19T01:15:04;99336.03;;;16.61;100.00
44765;BME280;30484;52.382;5.260;2023-10-19T01:17:35;99332.09;;;16.91;100.00
44765;BME280;30484;52.382;5.260;2023-10-19T01:20:08;99325.69;;;16.56;100.00
44765;BME280;30484;52.382;5.260;2023-10-19T01:22:53;99330.63;;;17.67;100.00
44765;BME280;30484;52.382;5.260;2023-10-19T01:25:41;99334.25;;;17.05;100.00
44765;BME280;30484;52.382;5.260;2023-10-19T01:28:13;99329.81;;;16.96;100.00
44765;BME280;30484;52.382;5.260;2023-10-19T01:30:44;99320.44;;;17.08;100.00
44765;BME280;30484;52.382;5.260;2023-10-19T01:33:13;99319.53;;;17.00;100.00
44765;BME280;30484;52.382;5.260;2023-10-19T01:35:43;99318.19;;;17.74;100.00
44765;BME280;30484;52.382;5.260;2023-10-19T01:38:31;99315.66;;;17.81;100.00
44765;BME280;30484;52.382;5.260;2023-10-19T01:41:02;99317.59;;;16.74;100.00
44765;BME280;30484;52.382;5.260;2023-10-19T01:43:33;99310.84;;;17.32;100.00
44765;BME280;30484;52.382;5.260;2023-10-19T01:46:01;99308.47;;;17.29;100.00
44765;BME280;30484;52.382;5.260;2023-10-19T01:48:32;99302.34;;;17.27;100.00
44765;BME280;30484;52.382;5.260;2023-10-19T01:51:04;99304.91;;;18.32;100.00
44765;BME280;30484;52.382;5.260;2023-10-19T01:53:34;99297.06;;;18.88;100.00
44765;BME280;30484;52.382;5.260;2023-10-19T01:56:02;99292.78;;;17.33;100.00
44765;BME280;30484;52.382;5.260;2023-10-19T01:58:32;99292.03;;;16.96;100.00
44765;BME280;30484;52.382;5.260;2023-10-19T02:01:04;99295.44;;;17.85;100.00
44765;BME280;30484;52.382;5.260;2023-10-19T02:03:36;99298.19;;;18.61;100.00
44765;BME280;30484;52.382;5.260;2023-10-19T02:06:04;99292.47;;;18.56;100.00
44765;BME280;30484;52.382;5.260;2023-10-19T02:08:48;99285.53;;;17.59;100.00
44765;BME280;30484;52.382;5.260;2023-10-19T02:11:20;99283.00;;;17.92;100.00
44765;BME280;30484;52.382;5.260;2023-10-19T02:13:50;99280.94;;;17.52;100.00
44765;BME280;30484;52.382;5.260;2023-10-19T02:16:19;99276.44;;;17.34;100.00
44765;BME280;30484;52.382;5.260;2023-10-19T02:18:50;99267.41;;;18.29;100.00
44765;BME280;30484;52.382;5.260;2023-10-19T02:21:19;99262.69;;;18.39;100.00
44765;BME280;30484;52.382;5.260;2023-10-19T02:23:51;99276.66;;;18.18;100.00
44765;BME280;30484;52.382;5.260;2023-10-19T02:26:20;99279.50;;;18.08;100.00
44765;BME280;30484;52.382;5.260;2023-10-19T02:28:50;99275.91;;;17.91;100.00
44765;BME280;30484;52.382;5.260;2023-10-19T02:31:19;99263.06;;;18.69;100.00
44765;BME280;30484;52.382;5.260;2023-10-19T02:33:49;99272.66;;;18.39;100.00
44765;BME280;30484;52.382;5.260;2023-10-19T02:36:19;99263.38;;;19.24;100.00
44765;BME280;30484;52.382;5.260;2023-10-19T02:38:47;99263.69;;;19.37;100.00
44765;BME280;30484;52.382;5.260;2023-10-19T02:41:21;99261.50;;;19.33;100.00
44765;BME280;30484;52.382;5.260;2023-10-19T02:43:48;99259.59;;;18.18;100.00
44765;BME280;30484;52.382;5.260;2023-10-19T02:46:28;99264.34;;;18.24;100.00
44765;BME280;30484;52.382;5.260;2023-10-19T02:48:55;99272.19;;;19.09;100.00
44765;BME280;30484;52.382;5.260;2023-10-19T02:51:24;99255.78;;;19.19;100.00
44765;BME280;30484;52.382;5.260;2023-10-19T02:53:52;99264.16;;;19.49;100.00
44765;BME280;30484;52.382;5.260;2023-10-19T02:56:22;99251.28;;;19.99;100.00
44765;BME280;30484;52.382;5.260;2023-10-19T02:58:51;99247.00;;;20.36;100.00
44765;BME280;30484;52.382;5.260;2023-10-19T03:01:20;99251.22;;;20.15;100.00
44765;BME280;30484;52.382;5.260;2023-10-19T03:03:52;99260.25;;;19.52;100.00
44765;BME280;30484;52.382;5.260;2023-10-19T03:06:21;99250.81;;;19.95;100.00
44765;BME280;30484;52.382;5.260;2023-10-19T03:08:50;99258.47;;;19.83;100.00
44765;BME280;30484;52.382;5.260;2023-10-19T03:11:26;99247.38;;;19.54;100.00
44765;BME280;30484;52.382;5.260;2023-10-19T03:13:54;99248.56;;;20.53;100.00
44765;BME280;30484;52.382;5.260;2023-10-19T03:16:24;99242.91;;;20.40;100.00
44765;BME280;30484;52.382;5.260;2023-10-19T03:18:51;99246.25;;;20.74;100.00
44765;BME280;30484;52.382;5.260;2023-10-19T03:21:22;99244.31;;;20.82;100.00
44765;BME280;30484;52.382;5.260;2023-10-19T03:23:53;99243.94;;;21.24;100.00
44765;BME280;30484;52.382;5.260;2023-10-19T03:26:23;99229.78;;;21.43;100.00
44765;BME280;30484;52.382;5.260;2023-10-19T03:28:59;99232.75;;;21.33;100.00
44765;BME280;30484;52.382;5.260;2023-10-19T03:31:30;99238.50;;;19.85;100.00
44765;BME280;30484;52.382;5.260;2023-10-19T03:34:00;99228.47;;;21.09;100.00
44765;BME280;30484;52.382;5.260;2023-10-19T03:36:32;99231.47;;;20.76;100.00
44765;BME280;30484;52.382;5.260;2023-10-19T03:39:00;99242.06;;;20.63;100.00
44765;BME280;30484;52.382;5.260;2023-10-19T03:41:38;99237.47;;;20.40;100.00
44765;BME280;30484;52.382;5.260;2023-10-19T03:44:10;99236.53;;;20.33;100.00
44765;BME280;30484;52.382;5.260;2023-10-19T03:46:46;99234.34;;;20.51;100.00
44765;BME280;30484;52.382;5.260;2023-10-19T03:49:25;99232.31;;;21.30;100.00
44765;BME280;30484;52.382;5.260;2023-10-19T03:52:00;99233.84;;;20.79;100.00
44765;BME280;30484;52.382;5.260;2023-10-19T03:54:47;99220.25;;;21.62;100.00
44765;BME280;30484;52.382;5.260;2023-10-19T03:57:18;99233.09;;;21.00;100.00
44765;BME280;30484;52.382;5.260;2023-10-19T03:59:52;99226.84;;;20.07;100.00
44765;BME280;30484;52.382;5.260;2023-10-19T04:02:23;99219.59;;;20.54;100.00
44765;BME280;30484;52.382;5.260;2023-10-19T04:04:54;99220.66;;;21.06;100.00
44765;BME280;30484;52.382;5.260;2023-10-19T04:07:24;99215.47;;;21.49;100.00
44765;BME280;30484;52.382;5.260;2023-10-19T04:09:55;99211.09;;;20.34;100.00
44765;BME280;30484;52.382;5.260;2023-10-19T04:12:39;99202.28;;;20.32;100.00
44765;BME280;30484;52.382;5.260;2023-10-19T04:15:11;99210.38;;;21.01;100.00
44765;BME280;30484;52.382;5.260;2023-10-19T04:17:45;99205.50;;;21.42;100.00
44765;BME280;30484;52.382;5.260;2023-10-19T04:20:18;99214.41;;;21.06;100.00
44765;BME280;30484;52.382;5.260;2023-10-19T04:23:20;99209.63;;;21.67;100.00
44765;BME280;30484;52.382;5.260;2023-10-19T04:25:49;99217.44;;;20.88;100.00
44765;BME280;30484;52.382;5.260;2023-10-19T04:28:18;99220.03;;;21.19;100.00
44765;BME280;30484;52.382;5.260;2023-10-19T04:30:58;99214.03;;;21.38;100.00
44765;BME280;30484;52.382;5.260;2023-10-19T04:33:31;99216.31;;;21.35;100.00
44765;BME280;30484;52.382;5.260;2023-10-19T04:36:00;99210.06;;;20.96;100.00
44765;BME280;30484;52.382;5.260;2023-10-19T04:38:30;99204.97;;;21.46;100.00
44765;BME280;30484;52.382;5.260;2023-10-19T04:41:07;99217.00;;;20.84;100.00
44765;BME280;30484;52.382;5.260;2023-10-19T04:43:36;99218.84;;;20.83;100.00
44765;BME280;30484;52.382;5.260;2023-10-19T04:46:10;99223.19;;;20.93;100.00
44765;BME280;30484;52.382;5.260;2023-10-19T04:48:40;99217.13;;;21.06;100.00
44765;BME280;30484;52.382;5.260;2023-10-19T04:51:09;99215.72;;;21.10;100.00
44765;BME280;30484;52.382;5.260;2023-10-19T04:53:38;99216.97;;;20.14;100.00
44765;BME280;30484;52.382;5.260;2023-10-19T04:56:07;99212.66;;;21.28;100.00
44765;BME280;30484;52.382;5.260;2023-10-19T04:58:37;99212.91;;;21.03;100.00
44765;BME280;30484;52.382;5.260;2023-10-19T05:01:05;99213.28;;;21.15;100.00
44765;BME280;30484;52.382;5.260;2023-10-19T05:03:35;99225.78;;;21.54;100.00
44765;BME280;30484;52.382;5.260;2023-10-19T05:06:03;99230.44;;;21.15;100.00
44765;BME280;30484;52.382;5.260;2023-10-19T05:08:32;99221.84;;;21.57;100.00
44765;BME280;30484;52.382;5.260;2023-10-19T05:11:00;99229.59;;;21.30;100.00
44765;BME280;30484;52.382;5.260;2023-10-19T05:13:30;99228.00;;;21.80;100.00
44765;BME280;30484;52.382;5.260;2023-10-19T05:16:01;99230.75;;;21.65;100.00
44765;BME280;30484;52.382;5.260;2023-10-19T05:18:29;99231.06;;;21.02;100.00
44765;BME280;30484;52.382;5.260;2023-10-19T05:20:59;99227.16;;;21.80;100.00
44765;BME280;30484;52.382;5.260;2023-10-19T05:23:28;99231.13;;;21.62;100.00
44765;BME280;30484;52.382;5.260;2023-10-19T05:26:02;99231.97;;;20.95;100.00
44765;BME280;30484;52.382;5.260;2023-10-19T05:28:31;99234.38;;;21.28;100.00
44765;BME280;30484;52.382;5.260;2023-10-19T05:30:59;99244.09;;;21.37;100.00
44765;BME280;30484;52.382;5.260;2023-10-19T05:33:27;99241.00;;;21.10;100.00
44765;BME280;30484;52.382;5.260;2023-10-19T05:35:58;99242.78;;;21.33;100.00
44765;BME280;30484;52.382;5.260;2023-10-19T05:38:28;99245.72;;;20.78;100.00
44765;BME280;30484;52.382;5.260;2023-10-19T05:40:57;99240.28;;;20.78;100.00
44765;BME280;30484;52.382;5.260;2023-10-19T05:43:26;99247.88;;;21.51;100.00
44765;BME280;30484;52.382;5.260;2023-10-19T05:45:55;99246.91;;;21.29;100.00
44765;BME280;30484;52.382;5.260;2023-10-19T05:48:24;99248.69;;;20.37;100.00
44765;BME280;30484;52.382;5.260;2023-10-19T05:50:52;99257.41;;;21.32;100.00
44765;BME280;30484;52.382;5.260;2023-10-19T05:53:22;99250.47;;;21.44;100.00
44765;BME280;30484;52.382;5.260;2023-10-19T05:55:50;99255.59;;;22.14;100.00
44765;BME280;30484;52.382;5.260;2023-10-19T05:58:18;99265.84;;;20.84;100.00
44765;BME280;30484;52.382;5.260;2023-10-19T06:00:47;99260.03;;;20.87;100.00
44765;BME280;30484;52.382;5.260;2023-10-19T06:03:19;99262.47;;;21.35;100.00
44765;BME280;30484;52.382;5.260;2023-10-19T06:05:47;99257.63;;;21.75;100.00
44765;BME280;30484;52.382;5.260;2023-10-19T06:08:15;99259.34;;;20.70;100.00
44765;BME280;30484;52.382;5.260;2023-10-19T06:10:52;99269.31;;;21.31;100.00
44765;BME280;30484;52.382;5.260;2023-10-19T06:13:20;99260.59;;;21.95;100.00
44765;BME280;30484;52.382;5.260;2023-10-19T06:15:49;99262.00;;;21.91;100.00
44765;BME280;30484;52.382;5.260;2023-10-19T06:18:18;99263.22;;;21.44;100.00
44765;BME280;30484;52.382;5.260;2023-10-19T06:20:47;99260.16;;;21.77;100.00
44765;BME280;30484;52.382;5.260;2023-10-19T06:23:19;99266.28;;;21.11;100.00
44765;BME280;30484;52.382;5.260;2023-10-19T06:25:48;99273.13;;;22.11;100.00
44765;BME280;30484;52.382;5.260;2023-10-19T06:28:18;99273.56;;;21.63;100.00
44765;BME280;30484;52.382;5.260;2023-10-19T06:30:46;99267.16;;;22.01;100.00
44765;BME280;30484;52.382;5.260;2023-10-19T06:33:15;99270.00;;;22.29;100.00
44765;BME280;30484;52.382;5.260;2023-10-19T06:35:43;99257.59;;;21.30;100.00
44765;BME280;30484;52.382;5.260;2023-10-19T06:38:12;99271.84;;;20.94;100.00
44765;BME280;30484;52.382;5.260;2023-10-19T06:40:40;99276.81;;;21.44;100.00
44765;BME280;30484;52.382;5.260;2023-10-19T06:43:10;99277.03;;;20.58;100.00
44765;BME280;30484;52.382;5.260;2023-10-19T06:45:38;99276.50;;;21.24;100.00
44765;BME280;30484;52.382;5.260;2023-10-19T06:48:07;99278.22;;;21.84;100.00
44765;BME280;30484;52.382;5.260;2023-10-19T06:50:36;99279.16;;;20.94;100.00
44765;BME280;30484;52.382;5.260;2023-10-19T06:53:04;99279.09;;;21.55;100.00
44765;BME280;30484;52.382;5.260;2023-10-19T06:55:33;99286.13;;;21.26;100.00
44765;BME280;30484;52.382;5.260;2023-10-19T06:58:01;99280.88;;;21.63;100.00
44765;BME280;30484;52.382;5.260;2023-10-19T07:00:30;99278.81;;;21.65;100.00
44765;BME280;30484;52.382;5.260;2023-10-19T07:03:00;99291.44;;;22.02;100.00
44765;BME280;30484;52.382;5.260;2023-10-19T07:05:29;99292.44;;;21.27;100.00
44765;BME280;30484;52.382;5.260;2023-10-19T07:07:58;99302.13;;;22.04;100.00
44765;BME280;30484;52.382;5.260;2023-10-19T07:10:29;99305.22;;;20.80;100.00
44765;BME280;30484;52.382;5.260;2023-10-19T07:12:57;99306.53;;;21.90;100.00
44765;BME280;30484;52.382;5.260;2023-10-19T07:15:26;99309.00;;;21.17;100.00
44765;BME280;30484;52.382;5.260;2023-10-19T07:17:57;99303.38;;;21.57;100.00
44765;BME280;30484;52.382;5.260;2023-10-19T07:20:26;99310.69;;;21.71;100.00
44765;BME280;30484;52.382;5.260;2023-10-19T07:22:57;99313.88;;;21.89;100.00
44765;BME280;30484;52.382;5.260;2023-10-19T07:25:27;99315.69;;;21.06;100.00
44765;BME280;30484;52.382;5.260;2023-10-19T07:27:56;99316.63;;;20.98;100.00
44765;BME280;30484;52.382;5.260;2023-10-19T07:30:27;99317.06;;;21.78;100.00
44765;BME280;30484;52.382;5.260;2023-10-19T07:32:56;99309.31;;;21.37;100.00
44765;BME280;30484;52.382;5.260;2023-10-19T07:35:27;99309.66;;;22.53;100.00
44765;BME280;30484;52.382;5.260;2023-10-19T07:38:01;99313.28;;;21.11;100.00
44765;BME280;30484;52.382;5.260;2023-10-19T07:40:30;99321.31;;;20.81;100.00
44765;BME280;30484;52.382;5.260;2023-10-19T07:42:59;99327.13;;;22.14;100.00
44765;BME280;30484;52.382;5.260;2023-10-19T07:45:27;99326.41;;;22.05;100.00
44765;BME280;30484;52.382;5.260;2023-10-19T07:47:57;99315.78;;;21.51;100.00
44765;BME280;30484;52.382;5.260;2023-10-19T07:50:34;99331.19;;;21.88;100.00
44765;BME280;30484;52.382;5.260;2023-10-19T07:53:03;99329.28;;;22.19;100.00
44765;BME280;30484;52.382;5.260;2023-10-19T07:55:32;99329.97;;;22.06;100.00
44765;BME280;30484;52.382;5.260;2023-10-19T07:58:00;99328.31;;;21.37;100.00
44765;BME280;30484;52.382;5.260;2023-10-19T08:00:30;99336.97;;;21.41;100.00
44765;BME280;30484;52.382;5.260;2023-10-19T08:03:03;99332.03;;;21.59;100.00
44765;BME280;30484;52.382;5.260;2023-10-19T08:05:32;99331.91;;;21.14;100.00
44765;BME280;30484;52.382;5.260;2023-10-19T08:08:01;99330.78;;;21.47;100.00
44765;BME280;30484;52.382;5.260;2023-10-19T08:10:31;99339.06;;;20.92;100.00
44765;BME280;30484;52.382;5.260;2023-10-19T08:13:01;99322.03;;;21.89;100.00
44765;BME280;30484;52.382;5.260;2023-10-19T08:15:29;99322.38;;;22.01;100.00
44765;BME280;30484;52.382;5.260;2023-10-19T08:17:58;99322.84;;;22.05;100.00
44765;BME280;30484;52.382;5.260;2023-10-19T08:20:27;99334.84;;;21.96;100.00
44765;BME280;30484;52.382;5.260;2023-10-19T08:22:59;99333.09;;;22.54;100.00
44765;BME280;30484;52.382;5.260;2023-10-19T08:25:29;99339.59;;;22.53;100.00
44765;BME280;30484;52.382;5.260;2023-10-19T08:28:01;99338.03;;;21.84;100.00
44765;BME280;30484;52.382;5.260;2023-10-19T08:30:29;99330.59;;;21.48;100.00
44765;BME280;30484;52.382;5.260;2023-10-19T08:32:57;99325.78;;;21.50;100.00
44765;BME280;30484;52.382;5.260;2023-10-19T08:35:27;99334.81;;;21.13;100.00
44765;BME280;30484;52.382;5.260;2023-10-19T08:37:56;99334.78;;;21.36;100.00
44765;BME280;30484;52.382;5.260;2023-10-19T08:40:26;99344.00;;;22.24;100.00
44765;BME280;30484;52.382;5.260;2023-10-19T08:42:55;99342.34;;;22.23;100.00
44765;BME280;30484;52.382;5.260;2023-10-19T08:45:24;99342.16;;;21.65;100.00
44765;BME280;30484;52.382;5.260;2023-10-19T08:47:55;99350.97;;;22.12;100.00
44765;BME280;30484;52.382;5.260;2023-10-19T08:50:27;99340.00;;;22.05;100.00
44765;BME280;30484;52.382;5.260;2023-10-19T08:52:58;99335.59;;;21.89;100.00
44765;BME280;30484;52.382;5.260;2023-10-19T08:55:27;99336.34;;;21.98;100.00
44765;BME280;30484;52.382;5.260;2023-10-19T08:58:15;99331.56;;;21.55;100.00
44765;BME280;30484;52.382;5.260;2023-10-19T09:00:47;99327.81;;;22.16;100.00
44765;BME280;30484;52.382;5.260;2023-10-19T09:03:19;99318.63;;;21.87;100.00
44765;BME280;30484;52.382;5.260;2023-10-19T09:05:50;99316.34;;;22.21;100.00
44765;BME280;30484;52.382;5.260;2023-10-19T09:08:21;99319.22;;;22.49;100.00
44765;BME280;30484;52.382;5.260;2023-10-19T09:10:50;99326.25;;;23.23;100.00
44765;BME280;30484;52.382;5.260;2023-10-19T09:13:20;99322.03;;;23.49;100.00
44765;BME280;30484;52.382;5.260;2023-10-19T09:15:50;99319.53;;;23.54;100.00
44765;BME280;30484;52.382;5.260;2023-10-19T09:18:22;99313.25;;;23.54;100.00
44765;BME280;30484;52.382;5.260;2023-10-19T09:20:54;99313.13;;;22.47;100.00
44765;BME280;30484;52.382;5.260;2023-10-19T09:23:30;99308.94;;;22.45;100.00
44765;BME280;30484;52.382;5.260;2023-10-19T09:25:59;99305.66;;;22.19;100.00
44765;BME280;30484;52.382;5.260;2023-10-19T09:28:30;99305.50;;;23.22;100.00
44765;BME280;30484;52.382;5.260;2023-10-19T09:31:01;99310.72;;;22.22;100.00
44765;BME280;30484;52.382;5.260;2023-10-19T09:33:32;99308.09;;;22.29;100.00
44765;BME280;30484;52.382;5.260;2023-10-19T09:36:04;99315.81;;;21.96;100.00
44765;BME280;30484;52.382;5.260;2023-10-19T09:38:43;99306.47;;;22.93;100.00
44765;BME280;30484;52.382;5.260;2023-10-19T09:41:12;99317.69;;;23.05;100.00
44765;BME280;30484;52.382;5.260;2023-10-19T09:43:43;99315.53;;;22.57;100.00
44765;BME280;30484;52.382;5.260;2023-10-19T09:46:15;99311.22;;;23.63;100.00
44765;BME280;30484;52.382;5.260;2023-10-19T09:48:47;99308.66;;;23.04;100.00
44765;BME280;30484;52.382;5.260;2023-10-19T09:51:18;99307.19;;;24.35;100.00
44765;BME280;30484;52.382;5.260;2023-10-19T09:53:51;99303.06;;;24.59;100.00
44765;BME280;30484;52.382;5.260;2023-10-19T09:56:24;99299.25;;;23.07;100.00
44765;BME280;30484;52.382;5.260;2023-10-19T09:58:59;99301.69;;;24.22;100.00
44765;BME280;30484;52.382;5.260;2023-10-19T10:02:08;99295.34;;;24.70;100.00
44765;BME280;30484;52.382;5.260;2023-10-19T10:04:42;99298.31;;;25.02;100.00
44765;BME280;30484;52.382;5.260;2023-10-19T10:07:14;99309.56;;;23.68;100.00
44765;BME280;30484;52.382;5.260;2023-10-19T10:10:04;99303.03;;;23.63;100.00
44765;BME280;30484;52.382;5.260;2023-10-19T10:12:32;99289.91;;;24.76;100.00
44765;BME280;30484;52.382;5.260;2023-10-19T10:15:04;99284.94;;;24.38;100.00
44765;BME280;30484;52.382;5.260;2023-10-19T10:17:36;99282.44;;;24.30;100.00
44765;BME280;30484;52.382;5.260;2023-10-19T10:20:30;99296.88;;;23.82;100.00
44765;BME280;30484;52.382;5.260;2023-10-19T10:23:19;99287.44;;;24.26;100.00
44765;BME280;30484;52.382;5.260;2023-10-19T10:25:51;99287.97;;;23.67;100.00
44765;BME280;30484;52.382;5.260;2023-10-19T10:28:21;99290.84;;;24.42;100.00
44765;BME280;30484;52.382;5.260;2023-10-19T10:31:14;99296.28;;;23.52;100.00
44765;BME280;30484;52.382;5.260;2023-10-19T10:33:46;99290.25;;;23.91;100.00
44765;BME280;30484;52.382;5.260;2023-10-19T10:36:16;99270.22;;;25.93;100.00
44765;BME280;30484;52.382;5.260;2023-10-19T10:38:48;99279.81;;;24.77;100.00
44765;BME280;30484;52.382;5.260;2023-10-19T10:41:20;99292.63;;;23.73;100.00
44765;BME280;30484;52.382;5.260;2023-10-19T10:43:51;99291.66;;;23.52;100.00
44765;BME280;30484;52.382;5.260;2023-10-19T10:46:22;99293.72;;;24.27;100.00
44765;BME280;30484;52.382;5.260;2023-10-19T10:48:51;99293.34;;;23.53;100.00
44765;BME280;30484;52.382;5.260;2023-10-19T10:51:21;99291.72;;;23.66;100.00
44765;BME280;30484;52.382;5.260;2023-10-19T10:53:53;99281.09;;;23.42;100.00
44765;BME280;30484;52.382;5.260;2023-10-19T10:56:23;99268.28;;;22.86;100.00
44765;BME280;30484;52.382;5.260;2023-10-19T10:58:51;99262.97;;;23.98;100.00
44765;BME280;30484;52.382;5.260;2023-10-19T11:01:30;99267.38;;;24.54;100.00
44765;BME280;30484;52.382;5.260;2023-10-19T11:04:07;99259.63;;;24.03;100.00
44765;BME280;30484;52.382;5.260;2023-10-19T11:06:48;99266.91;;;24.44;100.00
44765;BME280;30484;52.382;5.260;2023-10-19T11:09:18;99264.22;;;23.25;100.00
44765;BME280;30484;52.382;5.260;2023-10-19T11:11:46;99259.34;;;23.49;100.00
44765;BME280;30484;52.382;5.260;2023-10-19T11:14:16;99249.78;;;24.90;100.00
44765;BME280;30484;52.382;5.260;2023-10-19T11:16:44;99239.56;;;24.24;100.00
44765;BME280;30484;52.382;5.260;2023-10-19T11:19:13;99242.81;;;23.92;100.00
44765;BME280;30484;52.382;5.260;2023-10-19T11:21:53;99229.50;;;23.06;100.00
44765;BME280;30484;52.382;5.260;2023-10-19T11:24:27;99238.03;;;23.03;100.00
44765;BME280;30484;52.382;5.260;2023-10-19T11:27:00;99254.75;;;23.50;100.00
44765;BME280;30484;52.382;5.260;2023-10-19T11:29:29;99254.69;;;24.26;100.00
44765;BME280;30484;52.382;5.260;2023-10-19T11:31:58;99239.84;;;24.56;100.00
44765;BME280;30484;52.382;5.260;2023-10-19T11:34:27;99235.75;;;24.05;100.00
44765;BME280;30484;52.382;5.260;2023-10-19T11:36:58;99246.75;;;24.45;100.00
44765;BME280;30484;52.382;5.260;2023-10-19T11:39:28;99250.47;;;24.17;100.00
44765;BME280;30484;52.382;5.260;2023-10-19T11:41:57;99242.84;;;25.21;100.00
44765;BME280;30484;52.382;5.260;2023-10-19T11:44:25;99242.13;;;24.39;100.00
44765;BME280;30484;52.382;5.260;2023-10-19T11:46:53;99239.91;;;25.16;100.00
44765;BME280;30484;52.382;5.260;2023-10-19T11:49:21;99237.69;;;23.76;100.00
44765;BME280;30484;52.382;5.260;2023-10-19T11:51:53;99240.47;;;24.51;100.00
44765;BME280;30484;52.382;5.260;2023-10-19T11:54:21;99246.56;;;24.53;100.00
44765;BME280;30484;52.382;5.260;2023-10-19T11:56:51;99239.69;;;24.97;100.00
44765;BME280;30484;52.382;5.260;2023-10-19T11:59:20;99244.09;;;23.97;100.00
44765;BME280;30484;52.382;5.260;2023-10-19T12:01:48;99244.69;;;24.47;100.00
44765;BME280;30484;52.382;5.260;2023-10-19T12:04:17;99240.91;;;23.44;100.00
44765;BME280;30484;52.382;5.260;2023-10-19T12:06:46;99235.91;;;25.05;100.00
44765;BME280;30484;52.382;5.260;2023-10-19T12:09:14;99233.78;;;24.94;100.00
44765;BME280;30484;52.382;5.260;2023-10-19T12:11:43;99234.25;;;24.77;100.00
44765;BME280;30484;52.382;5.260;2023-10-19T12:14:15;99225.41;;;25.02;100.00
44765;BME280;30484;52.382;5.260;2023-10-19T12:16:44;99218.03;;;24.56;100.00
44765;BME280;30484;52.382;5.260;2023-10-19T12:19:13;99213.16;;;24.24;100.00
44765;BME280;30484;52.382;5.260;2023-10-19T12:21:43;99204.19;;;24.97;100.00
44765;BME280;30484;52.382;5.260;2023-10-19T12:24:11;99204.31;;;24.22;100.00
44765;BME280;30484;52.382;5.260;2023-10-19T12:26:39;99196.38;;;25.21;100.00
44765;BME280;30484;52.382;5.260;2023-10-19T12:29:09;99201.09;;;25.66;100.00
44765;BME280;30484;52.382;5.260;2023-10-19T12:31:40;99203.75;;;25.93;100.00
44765;BME280;30484;52.382;5.260;2023-10-19T12:34:08;99211.69;;;24.42;100.00
44765;BME280;30484;52.382;5.260;2023-10-19T12:36:38;99193.56;;;25.55;100.00
44765;BME280;30484;52.382;5.260;2023-10-19T12:39:08;99196.19;;;25.88;100.00
44765;BME280;30484;52.382;5.260;2023-10-19T12:41:42;99188.34;;;25.98;100.00
44765;BME280;30484;52.382;5.260;2023-10-19T12:44:10;99192.06;;;25.65;100.00
44765;BME280;30484;52.382;5.260;2023-10-19T12:46:40;99186.72;;;24.45;100.00
44765;BME280;30484;52.382;5.260;2023-10-19T12:49:09;99187.13;;;24.55;100.00
44765;BME280;30484;52.382;5.260;2023-10-19T12:51:41;99180.78;;;25.42;100.00
44765;BME280;30484;52.382;5.260;2023-10-19T12:54:11;99177.44;;;25.26;100.00
44765;BME280;30484;52.382;5.260;2023-10-19T12:56:40;99166.88;;;25.50;100.00
44765;BME280;30484;52.382;5.260;2023-10-19T12:59:09;99176.28;;;26.45;100.00
44765;BME280;30484;52.382;5.260;2023-10-19T13:01:40;99168.69;;;24.77;100.00
44765;BME280;30484;52.382;5.260;2023-10-19T13:04:14;99163.69;;;25.60;100.00
44765;BME280;30484;52.382;5.260;2023-10-19T13:06:43;99174.91;;;26.29;100.00
44765;BME280;30484;52.382;5.260;2023-10-19T13:09:14;99166.38;;;24.54;100.00
44765;BME280;30484;52.382;5.260;2023-10-19T13:11:48;99166.16;;;25.03;100.00